Port Au Choix, Canada
Current Conditions -  °F | °C
As of 10:38 PM on Thursday 27 Nov 2014 (Local Time) from CWDH Reporting Station
Clear Clear  
Wind Chill: -12°   Ceiling: Unl
Heat Index: -4°   Visibility: 2mi
Dew Point: -7°   Wind: 24mph
Humidity: 76%   Direction: 20°NNE
Pressure: 29.54"   Gusts: 33mph
Location:  50.72°N, 57.37°W
Report Text: CWDH 280138Z AUTO 02021G29KT 2SM NSC M04/M07 A2954 RMK PK WND 01032/// T10361072 WSI/SWOB
Loading
Personal Weather Stations






























Interactive Weather Map New forecast layout! Learn more

10-Day Weather Forecast

Advertisements
Track Severe Weather on mobile